sensor_id;sensor_type;location;lat;lon;timestamp;P1;durP1;ratioP1;P2;durP2;ratioP2
31974;SDS011;18500;43.618;1.474;2023-04-03T05:57:52;693.97;;;645.53;;
31974;SDS011;18500;43.618;1.474;2023-04-03T06:00:18;667.05;;;621.30;;
31974;SDS011;18500;43.618;1.474;2023-04-03T06:02:44;543.90;;;507.15;;
31974;SDS011;18500;43.618;1.474;2023-04-03T06:05:09;682.42;;;635.90;;
31974;SDS011;18500;43.618;1.474;2023-04-03T06:07:37;729.70;;;677.33;;
31974;SDS011;18500;43.618;1.474;2023-04-03T06:10:03;733.78;;;679.90;;
31974;SDS011;18500;43.618;1.474;2023-04-03T06:12:30;737.10;;;685.45;;
31974;SDS011;18500;43.618;1.474;2023-04-03T06:14:56;737.85;;;685.15;;
31974;SDS011;18500;43.618;1.474;2023-04-03T06:17:22;657.85;;;611.72;;
31974;SDS011;18500;43.618;1.474;2023-04-03T06:19:48;752.80;;;698.20;;
31974;SDS011;18500;43.618;1.474;2023-04-03T06:22:14;774.38;;;718.85;;
31974;SDS011;18500;43.618;1.474;2023-04-03T06:24:40;728.15;;;676.55;;
31974;SDS011;18500;43.618;1.474;2023-04-03T06:27:06;787.92;;;730.17;;
31974;SDS011;18500;43.618;1.474;2023-04-03T06:29:32;722.15;;;670.50;;
31974;SDS011;18500;43.618;1.474;2023-04-03T06:31:58;723.13;;;672.10;;
31974;SDS011;18500;43.618;1.474;2023-04-03T06:34:24;707.13;;;657.40;;
31974;SDS011;18500;43.618;1.474;2023-04-03T06:36:49;695.10;;;646.20;;
31974;SDS011;18500;43.618;1.474;2023-04-03T06:39:16;745.65;;;693.78;;
31974;SDS011;18500;43.618;1.474;2023-04-03T06:41:45;724.05;;;672.30;;
31974;SDS011;18500;43.618;1.474;2023-04-03T06:44:11;725.83;;;676.60;;
31974;SDS011;18500;43.618;1.474;2023-04-03T06:46:38;739.53;;;688.13;;
31974;SDS011;18500;43.618;1.474;2023-04-03T06:49:04;673.42;;;627.22;;
31974;SDS011;18500;43.618;1.474;2023-04-03T06:51:33;697.38;;;647.67;;
31974;SDS011;18500;43.618;1.474;2023-04-03T06:53:59;618.30;;;575.38;;
31974;SDS011;18500;43.618;1.474;2023-04-03T06:56:25;689.78;;;642.33;;
31974;SDS011;18500;43.618;1.474;2023-04-03T06:58:51;639.67;;;595.08;;
31974;SDS011;18500;43.618;1.474;2023-04-03T07:01:20;653.40;;;607.97;;
31974;SDS011;18500;43.618;1.474;2023-04-03T07:03:46;710.97;;;657.72;;
31974;SDS011;18500;43.618;1.474;2023-04-03T07:06:13;644.38;;;601.08;;
31974;SDS011;18500;43.618;1.474;2023-04-03T07:08:40;633.92;;;592.03;;
31974;SDS011;18500;43.618;1.474;2023-04-03T07:11:07;572.58;;;532.83;;
31974;SDS011;18500;43.618;1.474;2023-04-03T07:13:34;641.63;;;596.47;;
31974;SDS011;18500;43.618;1.474;2023-04-03T07:16:00;635.38;;;592.10;;
31974;SDS011;18500;43.618;1.474;2023-04-03T07:18:26;595.63;;;554.47;;
31974;SDS011;18500;43.618;1.474;2023-04-03T07:20:51;706.50;;;656.92;;
31974;SDS011;18500;43.618;1.474;2023-04-03T07:23:17;637.35;;;593.42;;
31974;SDS011;18500;43.618;1.474;2023-04-03T07:25:44;634.97;;;593.10;;
31974;SDS011;18500;43.618;1.474;2023-04-03T07:28:11;773.67;;;716.85;;
31974;SDS011;18500;43.618;1.474;2023-04-03T07:30:46;655.78;;;610.22;;
31974;SDS011;18500;43.618;1.474;2023-04-03T07:33:14;753.15;;;699.58;;
31974;SDS011;18500;43.618;1.474;2023-04-03T07:35:41;740.45;;;688.03;;
31974;SDS011;18500;43.618;1.474;2023-04-03T07:38:07;799.33;;;738.03;;
31974;SDS011;18500;43.618;1.474;2023-04-03T07:40:34;721.67;;;670.55;;
31974;SDS011;18500;43.618;1.474;2023-04-03T07:43:00;872.97;;;805.05;;
31974;SDS011;18500;43.618;1.474;2023-04-03T07:45:27;748.78;;;695.28;;
31974;SDS011;18500;43.618;1.474;2023-04-03T07:47:53;871.42;;;803.03;;
31974;SDS011;18500;43.618;1.474;2023-04-03T07:50:18;831.83;;;763.60;;
31974;SDS011;18500;43.618;1.474;2023-04-03T07:52:45;834.65;;;768.03;;
31974;SDS011;18500;43.618;1.474;2023-04-03T07:55:11;938.28;;;860.65;;
31974;SDS011;18500;43.618;1.474;2023-04-03T07:57:37;680.58;;;631.97;;
31974;SDS011;18500;43.618;1.474;2023-04-03T08:00:03;790.05;;;729.58;;
31974;SDS011;18500;43.618;1.474;2023-04-03T08:02:30;742.28;;;688.15;;
31974;SDS011;18500;43.618;1.474;2023-04-03T08:04:57;932.88;;;856.42;;
31974;SDS011;18500;43.618;1.474;2023-04-03T08:07:23;660.80;;;614.67;;
31974;SDS011;18500;43.618;1.474;2023-04-03T08:09:49;697.33;;;647.92;;
31974;SDS011;18500;43.618;1.474;2023-04-03T08:12:14;724.17;;;673.20;;
31974;SDS011;18500;43.618;1.474;2023-04-03T08:14:40;699.65;;;647.28;;
31974;SDS011;18500;43.618;1.474;2023-04-03T08:17:06;525.88;;;491.02;;
31974;SDS011;18500;43.618;1.474;2023-04-03T08:19:34;797.65;;;735.55;;
31974;SDS011;18500;43.618;1.474;2023-04-03T08:22:00;651.28;;;605.25;;
31974;SDS011;18500;43.618;1.474;2023-04-03T08:24:28;946.45;;;870.45;;
31974;SDS011;18500;43.618;1.474;2023-04-03T08:26:54;717.95;;;666.90;;
31974;SDS011;18500;43.618;1.474;2023-04-03T08:29:20;628.05;;;584.40;;
31974;SDS011;18500;43.618;1.474;2023-04-03T08:31:46;486.25;;;454.60;;
31974;SDS011;18500;43.618;1.474;2023-04-03T08:34:12;767.75;;;712.63;;
31974;SDS011;18500;43.618;1.474;2023-04-03T08:36:39;695.55;;;645.90;;
31974;SDS011;18500;43.618;1.474;2023-04-03T08:39:05;716.75;;;663.80;;
31974;SDS011;18500;43.618;1.474;2023-04-03T08:41:32;624.67;;;580.75;;
31974;SDS011;18500;43.618;1.474;2023-04-03T08:49:22;932.65;;;849.97;;
31974;SDS011;18500;43.618;1.474;2023-04-03T08:51:53;1021.97;;;926.88;;
31974;SDS011;18500;43.618;1.474;2023-04-03T08:54:25;1068.13;;;966.38;;
31974;SDS011;18500;43.618;1.474;2023-04-03T08:56:55;984.83;;;898.35;;
31974;SDS011;18500;43.618;1.474;2023-04-03T08:59:26;1119.35;;;999.45;;
31974;SDS011;18500;43.618;1.474;2023-04-03T09:01:56;1107.80;;;996.88;;
31974;SDS011;18500;43.618;1.474;2023-04-03T09:04:24;1090.75;;;987.30;;
31974;SDS011;18500;43.618;1.474;2023-04-03T09:06:55;940.50;;;859.78;;
31974;SDS011;18500;43.618;1.474;2023-04-03T09:09:32;974.85;;;886.22;;
31974;SDS011;18500;43.618;1.474;2023-04-03T09:15:00;1070.80;;;970.17;;
31974;SDS011;18500;43.618;1.474;2023-04-03T09:23:09;1024.70;;;929.20;;
31974;SDS011;18500;43.618;1.474;2023-04-03T09:26:09;1040.43;;;936.67;;
31974;SDS011;18500;43.618;1.474;2023-04-03T09:28:48;1041.45;;;931.75;;
31974;SDS011;18500;43.618;1.474;2023-04-03T09:31:18;740.92;;;680.38;;
31974;SDS011;18500;43.618;1.474;2023-04-03T09:33:50;756.28;;;700.95;;
31974;SDS011;18500;43.618;1.474;2023-04-03T09:39:09;649.33;;;600.80;;
31974;SDS011;18500;43.618;1.474;2023-04-03T09:41:37;495.42;;;464.17;;
31974;SDS011;18500;43.618;1.474;2023-04-03T09:44:04;638.97;;;592.28;;
31974;SDS011;18500;43.618;1.474;2023-04-03T09:46:49;608.63;;;567.17;;
31974;SDS011;18500;43.618;1.474;2023-04-03T09:49:15;959.85;;;873.40;;
31974;SDS011;18500;43.618;1.474;2023-04-03T09:51:42;1233.00;;;999.90;;
31974;SDS011;18500;43.618;1.474;2023-04-03T09:57:06;1326.53;;;999.90;;
31974;SDS011;18500;43.618;1.474;2023-04-03T09:59:34;1519.82;;;999.90;;
31974;SDS011;18500;43.618;1.474;2023-04-03T10:02:04;1629.10;;;999.90;;
31974;SDS011;18500;43.618;1.474;2023-04-03T10:04:45;1620.32;;;999.90;;
31974;SDS011;18500;43.618;1.474;2023-04-03T10:07:28;1172.07;;;999.90;;
31974;SDS011;18500;43.618;1.474;2023-04-03T10:09:56;1178.18;;;998.58;;
31974;SDS011;18500;43.618;1.474;2023-04-03T10:12:24;1157.80;;;999.90;;
31974;SDS011;18500;43.618;1.474;2023-04-03T10:20:48;1469.47;;;999.90;;
31974;SDS011;18500;43.618;1.474;2023-04-03T10:23:15;1279.53;;;999.90;;
31974;SDS011;18500;43.618;1.474;2023-04-03T10:25:55;993.65;;;894.75;;
31974;SDS011;18500;43.618;1.474;2023-04-03T10:31:15;1404.93;;;999.90;;
31974;SDS011;18500;43.618;1.474;2023-04-03T10:34:04;1438.53;;;999.90;;
31974;SDS011;18500;43.618;1.474;2023-04-03T10:42:02;1138.00;;;999.90;;
31974;SDS011;18500;43.618;1.474;2023-04-03T10:47:34;1286.53;;;999.90;;
31974;SDS011;18500;43.618;1.474;2023-04-03T10:58:46;1324.28;;;999.90;;
31974;SDS011;18500;43.618;1.474;2023-04-03T11:01:19;1999.90;;;999.90;;
31974;SDS011;18500;43.618;1.474;2023-04-03T11:03:55;1999.90;;;999.90;;
31974;SDS011;18500;43.618;1.474;2023-04-03T11:06:25;1553.13;;;999.90;;
31974;SDS011;18500;43.618;1.474;2023-04-03T11:08:57;1082.28;;;974.80;;
31974;SDS011;18500;43.618;1.474;2023-04-03T11:11:36;1148.38;;;999.90;;
31974;SDS011;18500;43.618;1.474;2023-04-03T11:14:10;1301.60;;;999.90;;
31974;SDS011;18500;43.618;1.474;2023-04-03T11:16:43;1309.47;;;999.90;;
31974;SDS011;18500;43.618;1.474;2023-04-03T11:19:22;1617.85;;;999.90;;
31974;SDS011;18500;43.618;1.474;2023-04-03T11:22:15;1328.68;;;999.90;;
31974;SDS011;18500;43.618;1.474;2023-04-03T11:25:21;1999.90;;;999.90;;
31974;SDS011;18500;43.618;1.474;2023-04-03T11:28:05;970.88;;;883.15;;
31974;SDS011;18500;43.618;1.474;2023-04-03T11:30:42;1113.20;;;992.20;;
31974;SDS011;18500;43.618;1.474;2023-04-03T11:36:28;1202.25;;;999.90;;
31974;SDS011;18500;43.618;1.474;2023-04-03T11:39:00;1363.07;;;999.90;;
31974;SDS011;18500;43.618;1.474;2023-04-03T11:41:34;1211.45;;;999.90;;
31974;SDS011;18500;43.618;1.474;2023-04-03T11:44:02;1924.25;;;999.90;;
31974;SDS011;18500;43.618;1.474;2023-04-03T11:58:30;1747.47;;;999.90;;
31974;SDS011;18500;43.618;1.474;2023-04-03T12:05:55;1706.22;;;999.90;;
31974;SDS011;18500;43.618;1.474;2023-04-03T12:13:35;1554.25;;;999.90;;
31974;SDS011;18500;43.618;1.474;2023-04-03T12:16:00;1363.95;;;999.90;;
31974;SDS011;18500;43.618;1.474;2023-04-03T12:21:17;1388.53;;;999.90;;
31974;SDS011;18500;43.618;1.474;2023-04-03T12:26:47;1773.95;;;999.90;;
31974;SDS011;18500;43.618;1.474;2023-04-03T12:37:23;1578.55;;;999.90;;
31974;SDS011;18500;43.618;1.474;2023-04-03T12:40:21;1479.07;;;999.90;;
31974;SDS011;18500;43.618;1.474;2023-04-03T12:45:46;1307.68;;;999.90;;
31974;SDS011;18500;43.618;1.474;2023-04-03T12:51:18;1999.90;;;999.90;;
31974;SDS011;18500;43.618;1.474;2023-04-03T12:53:47;1999.90;;;999.90;;
31974;SDS011;18500;43.618;1.474;2023-04-03T12:56:19;1999.90;;;999.90;;
31974;SDS011;18500;43.618;1.474;2023-04-03T12:58:51;1965.68;;;999.90;;
31974;SDS011;18500;43.618;1.474;2023-04-03T13:01:21;1999.90;;;999.90;;
31974;SDS011;18500;43.618;1.474;2023-04-03T13:03:55;1500.63;;;999.90;;
31974;SDS011;18500;43.618;1.474;2023-04-03T13:08:52;1481.75;;;999.90;;
31974;SDS011;18500;43.618;1.474;2023-04-03T13:11:22;1320.80;;;999.90;;
31974;SDS011;18500;43.618;1.474;2023-04-03T13:13:57;1999.90;;;999.90;;
31974;SDS011;18500;43.618;1.474;2023-04-03T13:16:30;1679.28;;;999.90;;
31974;SDS011;18500;43.618;1.474;2023-04-03T13:18:57;1100.50;;;992.22;;
31974;SDS011;18500;43.618;1.474;2023-04-03T13:21:26;1413.88;;;999.90;;
31974;SDS011;18500;43.618;1.474;2023-04-03T13:23:57;1187.68;;;999.90;;
31974;SDS011;18500;43.618;1.474;2023-04-03T13:28:57;1200.00;;;999.90;;
31974;SDS011;18500;43.618;1.474;2023-04-03T13:31:33;1160.57;;;999.90;;
31974;SDS011;18500;43.618;1.474;2023-04-03T13:34:10;1103.03;;;993.38;;
31974;SDS011;18500;43.618;1.474;2023-04-03T13:36:39;1085.97;;;977.72;;
31974;SDS011;18500;43.618;1.474;2023-04-03T13:41:44;1301.30;;;999.90;;
31974;SDS011;18500;43.618;1.474;2023-04-03T13:46:47;1173.28;;;999.90;;
31974;SDS011;18500;43.618;1.474;2023-04-03T13:51:55;1052.22;;;936.95;;
31974;SDS011;18500;43.618;1.474;2023-04-03T13:54:25;1018.38;;;909.80;;
31974;SDS011;18500;43.618;1.474;2023-04-03T13:56:57;973.20;;;881.03;;
31974;SDS011;18500;43.618;1.474;2023-04-03T13:59:27;1038.78;;;928.85;;
31974;SDS011;18500;43.618;1.474;2023-04-03T14:02:08;1095.45;;;981.67;;
31974;SDS011;18500;43.618;1.474;2023-04-03T14:07:13;1046.70;;;936.67;;
31974;SDS011;18500;43.618;1.474;2023-04-03T14:09:42;1165.20;;;999.90;;
31974;SDS011;18500;43.618;1.474;2023-04-03T14:12:24;1145.60;;;999.90;;
31974;SDS011;18500;43.618;1.474;2023-04-03T14:15:03;1704.43;;;999.90;;
31974;SDS011;18500;43.618;1.474;2023-04-03T14:17:30;1544.88;;;999.90;;
31974;SDS011;18500;43.618;1.474;2023-04-03T14:19:57;1236.20;;;999.90;;
31974;SDS011;18500;43.618;1.474;2023-04-03T14:22:27;1275.80;;;999.90;;
31974;SDS011;18500;43.618;1.474;2023-04-03T14:24:58;1079.53;;;982.38;;
31974;SDS011;18500;43.618;1.474;2023-04-03T14:27:29;1112.05;;;996.67;;
31974;SDS011;18500;43.618;1.474;2023-04-03T14:29:59;1132.57;;;999.90;;
31974;SDS011;18500;43.618;1.474;2023-04-03T14:32:26;1178.10;;;999.90;;
31974;SDS011;18500;43.618;1.474;2023-04-03T14:34:52;1149.07;;;999.90;;
31974;SDS011;18500;43.618;1.474;2023-04-03T14:37:19;1117.43;;;997.28;;
31974;SDS011;18500;43.618;1.474;2023-04-03T14:39:50;1916.85;;;999.90;;
31974;SDS011;18500;43.618;1.474;2023-04-03T14:42:19;1846.38;;;999.90;;
31974;SDS011;18500;43.618;1.474;2023-04-03T14:44:47;1122.25;;;999.90;;
31974;SDS011;18500;43.618;1.474;2023-04-03T14:47:14;1137.85;;;999.90;;
31974;SDS011;18500;43.618;1.474;2023-04-03T14:49:43;1166.82;;;999.90;;
31974;SDS011;18500;43.618;1.474;2023-04-03T14:52:16;1112.75;;;999.90;;
31974;SDS011;18500;43.618;1.474;2023-04-03T14:54:51;1282.07;;;999.90;;
31974;SDS011;18500;43.618;1.474;2023-04-03T14:57:17;1313.32;;;999.90;;
31974;SDS011;18500;43.618;1.474;2023-04-03T14:59:44;1752.15;;;999.90;;
31974;SDS011;18500;43.618;1.474;2023-04-03T15:02:30;1113.00;;;999.22;;
31974;SDS011;18500;43.618;1.474;2023-04-03T15:05:01;1268.60;;;999.90;;
31974;SDS011;18500;43.618;1.474;2023-04-03T15:07:32;1059.13;;;960.47;;
31974;SDS011;18500;43.618;1.474;2023-04-03T15:10:02;1097.90;;;986.17;;
31974;SDS011;18500;43.618;1.474;2023-04-03T15:12:38;1077.53;;;973.63;;
31974;SDS011;18500;43.618;1.474;2023-04-03T15:15:04;1028.70;;;933.75;;
31974;SDS011;18500;43.618;1.474;2023-04-03T15:17:30;996.58;;;908.63;;
31974;SDS011;18500;43.618;1.474;2023-04-03T15:19:55;1158.57;;;999.90;;
31974;SDS011;18500;43.618;1.474;2023-04-03T15:22:21;1251.40;;;999.90;;
31974;SDS011;18500;43.618;1.474;2023-04-03T15:24:47;1144.03;;;999.90;;
31974;SDS011;18500;43.618;1.474;2023-04-03T15:27:13;1124.32;;;999.90;;
31974;SDS011;18500;43.618;1.474;2023-04-03T15:29:40;1186.45;;;999.90;;
31974;SDS011;18500;43.618;1.474;2023-04-03T15:32:07;1101.78;;;986.47;;
31974;SDS011;18500;43.618;1.474;2023-04-03T15:34:34;1786.43;;;999.90;;
31974;SDS011;18500;43.618;1.474;2023-04-03T15:37:00;996.35;;;903.58;;
31974;SDS011;18500;43.618;1.474;2023-04-03T15:39:26;933.33;;;853.58;;
31974;SDS011;18500;43.618;1.474;2023-04-03T15:41:52;1042.68;;;945.88;;
31974;SDS011;18500;43.618;1.474;2023-04-03T15:44:19;1081.45;;;977.45;;
31974;SDS011;18500;43.618;1.474;2023-04-03T15:46:46;1112.50;;;995.15;;
31974;SDS011;18500;43.618;1.474;2023-04-03T15:49:13;912.85;;;835.70;;
31974;SDS011;18500;43.618;1.474;2023-04-03T15:51:39;959.42;;;877.33;;
31974;SDS011;18500;43.618;1.474;2023-04-03T15:54:05;955.22;;;868.58;;
31974;SDS011;18500;43.618;1.474;2023-04-03T15:56:31;1070.30;;;969.10;;
31974;SDS011;18500;43.618;1.474;2023-04-03T15:58:57;1110.57;;;991.80;;
31974;SDS011;18500;43.618;1.474;2023-04-03T16:01:22;1140.25;;;999.90;;
31974;SDS011;18500;43.618;1.474;2023-04-03T16:03:48;1225.25;;;999.90;;
31974;SDS011;18500;43.618;1.474;2023-04-03T16:06:14;1119.03;;;998.30;;
31974;SDS011;18500;43.618;1.474;2023-04-03T16:08:41;1117.07;;;996.00;;
31974;SDS011;18500;43.618;1.474;2023-04-03T16:11:07;1267.50;;;999.90;;
31974;SDS011;18500;43.618;1.474;2023-04-03T16:13:33;1122.15;;;999.90;;
31974;SDS011;18500;43.618;1.474;2023-04-03T16:15:59;1130.22;;;999.90;;
31974;SDS011;18500;43.618;1.474;2023-04-03T16:18:26;1121.68;;;999.90;;
31974;SDS011;18500;43.618;1.474;2023-04-03T16:20:52;1686.63;;;999.90;;
31974;SDS011;18500;43.618;1.474;2023-04-03T16:23:18;1686.47;;;999.90;;
31974;SDS011;18500;43.618;1.474;2023-04-03T16:25:44;1053.90;;;952.83;;
31974;SDS011;18500;43.618;1.474;2023-04-03T16:28:11;1098.82;;;986.55;;
31974;SDS011;18500;43.618;1.474;2023-04-03T16:30:39;1748.63;;;999.90;;
31974;SDS011;18500;43.618;1.474;2023-04-03T16:33:09;1019.67;;;924.30;;
31974;SDS011;18500;43.618;1.474;2023-04-03T16:35:35;1096.82;;;984.65;;
31974;SDS011;18500;43.618;1.474;2023-04-03T16:38:01;1048.18;;;948.17;;
31974;SDS011;18500;43.618;1.474;2023-04-03T16:40:28;1094.60;;;987.67;;
31974;SDS011;18500;43.618;1.474;2023-04-03T16:42:53;1055.72;;;953.97;;
31974;SDS011;18500;43.618;1.474;2023-04-03T16:45:19;1115.85;;;997.05;;
31974;SDS011;18500;43.618;1.474;2023-04-03T16:47:45;1104.93;;;994.97;;
31974;SDS011;18500;43.618;1.474;2023-04-03T16:50:10;1502.60;;;999.90;;
31974;SDS011;18500;43.618;1.474;2023-04-03T16:52:36;1164.80;;;999.90;;
31974;SDS011;18500;43.618;1.474;2023-04-03T16:55:02;1219.85;;;999.90;;
31974;SDS011;18500;43.618;1.474;2023-04-03T16:57:27;1157.57;;;999.90;;
31974;SDS011;18500;43.618;1.474;2023-04-03T16:59:53;1167.30;;;999.90;;
31974;SDS011;18500;43.618;1.474;2023-04-03T17:02:20;1476.85;;;999.90;;
31974;SDS011;18500;43.618;1.474;2023-04-03T17:04:49;1718.45;;;999.90;;
31974;SDS011;18500;43.618;1.474;2023-04-03T17:07:16;1172.85;;;999.90;;
31974;SDS011;18500;43.618;1.474;2023-04-03T17:09:43;1799.03;;;999.90;;
31974;SDS011;18500;43.618;1.474;2023-04-03T17:12:09;1788.63;;;999.90;;
31974;SDS011;18500;43.618;1.474;2023-04-03T17:14:35;1848.07;;;999.90;;
31974;SDS011;18500;43.618;1.474;2023-04-03T17:17:00;1160.00;;;999.90;;
31974;SDS011;18500;43.618;1.474;2023-04-03T17:19:28;1794.38;;;999.90;;
31974;SDS011;18500;43.618;1.474;2023-04-03T17:21:53;1375.25;;;999.90;;
31974;SDS011;18500;43.618;1.474;2023-04-03T17:24:20;1414.05;;;999.90;;
31974;SDS011;18500;43.618;1.474;2023-04-03T17:26:45;1887.80;;;999.90;;
31974;SDS011;18500;43.618;1.474;2023-04-03T17:29:11;1555.82;;;999.90;;
31974;SDS011;18500;43.618;1.474;2023-04-03T17:31:37;1468.82;;;999.90;;
31974;SDS011;18500;43.618;1.474;2023-04-03T17:34:02;1586.38;;;999.90;;
31974;SDS011;18500;43.618;1.474;2023-04-03T17:36:29;1764.28;;;999.90;;
31974;SDS011;18500;43.618;1.474;2023-04-03T17:38:55;1812.03;;;999.90;;
31974;SDS011;18500;43.618;1.474;2023-04-03T17:41:21;1732.03;;;999.90;;
31974;SDS011;18500;43.618;1.474;2023-04-03T17:43:47;1271.50;;;999.90;;
31974;SDS011;18500;43.618;1.474;2023-04-03T17:46:13;1774.75;;;999.90;;
31974;SDS011;18500;43.618;1.474;2023-04-03T17:48:40;1328.38;;;999.90;;
31974;SDS011;18500;43.618;1.474;2023-04-03T17:51:07;1721.88;;;999.90;;
31974;SDS011;18500;43.618;1.474;2023-04-03T17:53:35;1520.18;;;999.90;;
31974;SDS011;18500;43.618;1.474;2023-04-03T17:56:04;1573.43;;;999.90;;
31974;SDS011;18500;43.618;1.474;2023-04-03T17:58:34;1770.20;;;999.90;;
31974;SDS011;18500;43.618;1.474;2023-04-03T18:01:45;1828.45;;;999.90;;
31974;SDS011;18500;43.618;1.474;2023-04-03T18:03:51;1808.00;;;999.90;;
31974;SDS011;18500;43.618;1.474;2023-04-03T18:06:19;1678.18;;;999.90;;
31974;SDS011;18500;43.618;1.474;2023-04-03T18:08:57;1665.10;;;999.90;;
31974;SDS011;18500;43.618;1.474;2023-04-03T18:11:28;1657.85;;;999.90;;
31974;SDS011;18500;43.618;1.474;2023-04-03T18:13:56;1303.70;;;999.90;;
31974;SDS011;18500;43.618;1.474;2023-04-03T18:16:24;1453.43;;;999.90;;
31974;SDS011;18500;43.618;1.474;2023-04-03T18:18:50;1295.47;;;999.90;;
31974;SDS011;18500;43.618;1.474;2023-04-03T18:21:15;1676.47;;;999.90;;
31974;SDS011;18500;43.618;1.474;2023-04-03T18:23:42;1604.68;;;999.90;;
31974;SDS011;18500;43.618;1.474;2023-04-03T18:26:12;1525.13;;;999.90;;
31974;SDS011;18500;43.618;1.474;2023-04-03T18:28:39;1666.30;;;999.90;;
31974;SDS011;18500;43.618;1.474;2023-04-03T18:31:07;1253.53;;;999.90;;
31974;SDS011;18500;43.618;1.474;2023-04-03T18:33:35;1733.03;;;999.90;;
31974;SDS011;18500;43.618;1.474;2023-04-03T18:36:03;1090.05;;;975.28;;
31974;SDS011;18500;43.618;1.474;2023-04-03T18:38:29;1046.82;;;937.42;;
31974;SDS011;18500;43.618;1.474;2023-04-03T18:40:55;1409.57;;;999.90;;
31974;SDS011;18500;43.618;1.474;2023-04-03T18:43:21;1765.07;;;999.90;;
31974;SDS011;18500;43.618;1.474;2023-04-03T18:45:50;1800.13;;;999.90;;
31974;SDS011;18500;43.618;1.474;2023-04-03T18:48:16;1601.97;;;999.90;;
31974;SDS011;18500;43.618;1.474;2023-04-03T18:50:42;1580.40;;;999.90;;
31974;SDS011;18500;43.618;1.474;2023-04-03T18:53:09;1618.35;;;999.90;;
31974;SDS011;18500;43.618;1.474;2023-04-03T18:55:35;1784.60;;;999.90;;
31974;SDS011;18500;43.618;1.474;2023-04-03T18:58:01;1990.40;;;999.90;;
31974;SDS011;18500;43.618;1.474;2023-04-03T19:00:26;1999.90;;;999.90;;
31974;SDS011;18500;43.618;1.474;2023-04-03T19:02:52;1878.70;;;999.90;;
31974;SDS011;18500;43.618;1.474;2023-04-03T19:05:18;1779.30;;;999.90;;
31974;SDS011;18500;43.618;1.474;2023-04-03T19:07:44;1917.18;;;999.90;;
31974;SDS011;18500;43.618;1.474;2023-04-03T19:10:14;1769.53;;;999.90;;
31974;SDS011;18500;43.618;1.474;2023-04-03T19:12:44;1774.30;;;999.90;;
31974;SDS011;18500;43.618;1.474;2023-04-03T19:15:13;1999.90;;;999.90;;
31974;SDS011;18500;43.618;1.474;2023-04-03T19:17:39;1999.90;;;999.90;;
31974;SDS011;18500;43.618;1.474;2023-04-03T19:20:06;1391.43;;;999.90;;
31974;SDS011;18500;43.618;1.474;2023-04-03T19:22:33;1864.28;;;999.90;;
31974;SDS011;18500;43.618;1.474;2023-04-03T19:24:59;1808.35;;;999.90;;
31974;SDS011;18500;43.618;1.474;2023-04-03T19:27:25;1679.30;;;999.90;;
31974;SDS011;18500;43.618;1.474;2023-04-03T19:29:51;1731.53;;;999.90;;
31974;SDS011;18500;43.618;1.474;2023-04-03T19:32:17;1045.72;;;939.83;;
31974;SDS011;18500;43.618;1.474;2023-04-03T19:34:42;1246.68;;;988.05;;
31974;SDS011;18500;43.618;1.474;2023-04-03T19:37:08;1570.80;;;999.90;;
31974;SDS011;18500;43.618;1.474;2023-04-03T19:39:35;1388.13;;;999.90;;
31974;SDS011;18500;43.618;1.474;2023-04-03T19:42:02;1653.15;;;999.90;;
31974;SDS011;18500;43.618;1.474;2023-04-03T19:44:29;1395.13;;;999.90;;
31974;SDS011;18500;43.618;1.474;2023-04-03T19:47:00;1394.75;;;999.90;;
31974;SDS011;18500;43.618;1.474;2023-04-03T19:49:27;1506.95;;;999.90;;
31974;SDS011;18500;43.618;1.474;2023-04-03T19:51:53;1180.32;;;999.90;;
31974;SDS011;18500;43.618;1.474;2023-04-03T19:54:19;1443.20;;;999.90;;
31974;SDS011;18500;43.618;1.474;2023-04-03T19:56:45;1169.53;;;999.90;;
31974;SDS011;18500;43.618;1.474;2023-04-03T19:59:11;1099.97;;;986.63;;
31974;SDS011;18500;43.618;1.474;2023-04-03T20:01:37;1106.07;;;986.60;;
31974;SDS011;18500;43.618;1.474;2023-04-03T20:04:03;1038.38;;;942.78;;
31974;SDS011;18500;43.618;1.474;2023-04-03T20:06:29;1127.47;;;999.90;;
31974;SDS011;18500;43.618;1.474;2023-04-03T20:08:55;1122.82;;;998.55;;
31974;SDS011;18500;43.618;1.474;2023-04-03T20:11:21;1089.63;;;975.83;;
31974;SDS011;18500;43.618;1.474;2023-04-03T20:13:48;960.60;;;878.15;;
31974;SDS011;18500;43.618;1.474;2023-04-03T20:16:15;958.38;;;868.60;;
31974;SDS011;18500;43.618;1.474;2023-04-03T20:18:41;1356.65;;;999.90;;
31974;SDS011;18500;43.618;1.474;2023-04-03T20:21:07;753.00;;;691.20;;
31974;SDS011;18500;43.618;1.474;2023-04-03T20:23:34;893.85;;;817.40;;
31974;SDS011;18500;43.618;1.474;2023-04-03T20:26:01;703.55;;;647.85;;
31974;SDS011;18500;43.618;1.474;2023-04-03T20:28:29;786.70;;;720.08;;
31974;SDS011;18500;43.618;1.474;2023-04-03T20:30:55;659.75;;;612.28;;
31974;SDS011;18500;43.618;1.474;2023-04-03T20:33:23;751.55;;;692.30;;
31974;SDS011;18500;43.618;1.474;2023-04-03T20:35:50;1031.63;;;938.03;;
31974;SDS011;18500;43.618;1.474;2023-04-03T20:38:18;739.90;;;678.63;;
31974;SDS011;18500;43.618;1.474;2023-04-03T20:40:44;810.92;;;746.03;;
31974;SDS011;18500;43.618;1.474;2023-04-03T20:43:10;999.25;;;909.55;;
31974;SDS011;18500;43.618;1.474;2023-04-03T20:45:36;993.10;;;904.75;;
31974;SDS011;18500;43.618;1.474;2023-04-03T20:48:02;837.20;;;768.35;;
31974;SDS011;18500;43.618;1.474;2023-04-03T20:50:29;856.30;;;783.60;;
31974;SDS011;18500;43.618;1.474;2023-04-03T20:52:57;940.90;;;854.72;;
31974;SDS011;18500;43.618;1.474;2023-04-03T20:55:23;977.67;;;882.78;;
31974;SDS011;18500;43.618;1.474;2023-04-03T20:57:49;833.90;;;763.55;;
31974;SDS011;18500;43.618;1.474;2023-04-03T21:00:15;894.90;;;815.88;;
31974;SDS011;18500;43.618;1.474;2023-04-03T21:02:43;988.17;;;896.63;;
31974;SDS011;18500;43.618;1.474;2023-04-03T21:05:10;1171.85;;;999.90;;
31974;SDS011;18500;43.618;1.474;2023-04-03T21:19:23;783.63;;;718.47;;
31974;SDS011;18500;43.618;1.474;2023-04-03T21:21:49;977.40;;;876.28;;
31974;SDS011;18500;43.618;1.474;2023-04-03T21:24:16;802.05;;;738.72;;
31974;SDS011;18500;43.618;1.474;2023-04-03T21:26:43;773.20;;;710.67;;
